Anderson Island, Washington
Current Conditions -  °F | °C
As of 4:38 PM on Wednesday 22 Oct 2014 (Local Time) from KGRF Reporting Station
Light Rain Light Rain  
Wind Chill: 55°   Ceiling: Unl
Heat Index: 55°   Visibility: 10mi
Dew Point: 55°   Wind: 10mph
Humidity: 100%   Direction: 130°SE
Pressure: 29.62"   Gusts: NA
Location:  47.16°N, 122.7°W
Report Text: KGRF 222338Z AUTO 13009KT 10SM -RA SCT015 13/13 A2962 RMK AO2
Loading
Personal Weather Stations






























Interactive Weather Map
Tropical Storm Tracking
New forecast layout! Learn more

10-Day Weather Forecast

Advertisements
Track Severe Weather on mobile